createdAt,value
2022-08-17T00:02:25.905Z,1.00
2022-08-17T00:04:54.013Z,1.00
2022-08-17T00:07:21.314Z,1.00
2022-08-17T00:09:48.237Z,1.00
2022-08-17T00:12:43.684Z,1.00
2022-08-17T00:15:02.309Z,1.00
2022-08-17T00:17:29.185Z,1.00
2022-08-17T00:19:56.244Z,1.00
2022-08-17T00:22:34.376Z,1.00
2022-08-17T00:25:09.880Z,1.00
2022-08-17T00:27:37.004Z,1.00
2022-08-17T00:30:06.718Z,1.00
2022-08-17T00:33:22.801Z,1.00
2022-08-17T00:35:30.926Z,1.00
2022-08-17T00:37:57.811Z,1.00
2022-08-17T00:40:24.926Z,1.00
2022-08-17T00:42:53.404Z,1.00
2022-08-17T00:45:20.599Z,1.00
2022-08-17T00:47:47.527Z,1.00
2022-08-17T00:50:19.001Z,1.00
2022-08-17T00:52:53.845Z,1.00
2022-08-17T00:55:22.410Z,1.00
2022-08-17T00:57:55.518Z,1.00
2022-08-17T01:00:36.043Z,1.00
2022-08-17T01:03:07.686Z,1.00
2022-08-17T01:05:38.380Z,1.00
2022-08-17T01:08:31.140Z,1.00
2022-08-17T01:11:05.409Z,1.00
2022-08-17T01:13:40.674Z,1.00
2022-08-17T01:16:23.105Z,1.00
2022-08-17T01:18:53.239Z,1.00
2022-08-17T01:21:40.153Z,1.00
2022-08-17T01:24:08.524Z,1.00
2022-08-17T01:26:36.887Z,1.00
2022-08-17T01:29:05.432Z,1.00
2022-08-17T01:31:39.503Z,1.00
2022-08-17T01:34:09.261Z,1.00
2022-08-17T01:36:37.922Z,1.00
2022-08-17T01:39:06.951Z,1.00
2022-08-17T01:41:34.813Z,1.00
2022-08-17T01:44:07.419Z,1.00
2022-08-17T01:46:36.187Z,1.00
2022-08-17T01:49:08.113Z,1.00
2022-08-17T01:51:35.058Z,1.00
2022-08-17T01:54:05.987Z,1.00
2022-08-17T01:56:35.923Z,1.00
2022-08-17T01:59:02.986Z,1.00
2022-08-17T02:01:31.951Z,1.00
2022-08-17T02:04:01.226Z,1.00
2022-08-17T02:06:53.678Z,1.00
2022-08-17T02:09:29.491Z,1.00
2022-08-17T02:11:59.210Z,1.00
2022-08-17T02:14:26.740Z,1.00
2022-08-17T02:16:54.264Z,1.00
2022-08-17T02:19:21.894Z,1.00
2022-08-17T02:21:51.239Z,1.00
2022-08-17T02:24:58.615Z,1.00
2022-08-17T02:27:09.372Z,1.00
2022-08-17T02:29:37.226Z,1.00
2022-08-17T02:32:05.007Z,1.00
2022-08-17T02:34:32.441Z,1.00
2022-08-17T02:36:59.320Z,1.00
2022-08-17T02:39:26.276Z,1.00
2022-08-17T02:42:01.026Z,1.00
2022-08-17T02:44:35.492Z,1.00
2022-08-17T02:47:08.720Z,1.00
2022-08-17T02:49:35.876Z,1.00
2022-08-17T02:52:05.772Z,1.00
2022-08-17T02:54:39.963Z,1.00
2022-08-17T02:57:10.095Z,1.00
2022-08-17T02:59:38.070Z,1.00
2022-08-17T03:02:08.933Z,1.00
2022-08-17T03:04:36.069Z,1.00
2022-08-17T03:07:04.370Z,1.00
2022-08-17T03:09:31.450Z,1.00
2022-08-17T03:12:06.914Z,1.00
2022-08-17T03:14:41.123Z,1.00
2022-08-17T03:17:17.439Z,1.00
2022-08-17T03:19:44.892Z,1.00
2022-08-17T03:22:35.572Z,1.00
2022-08-17T03:24:58.769Z,1.00
2022-08-17T03:27:25.697Z,1.00
2022-08-17T03:29:53.158Z,1.00
2022-08-17T03:32:20.729Z,1.00
2022-08-17T03:34:48.068Z,1.00
2022-08-17T03:37:15.145Z,1.00
2022-08-17T03:39:42.910Z,1.00
2022-08-17T03:42:31.941Z,1.00
2022-08-17T03:45:00.328Z,1.00
2022-08-17T03:47:46.540Z,1.00
2022-08-17T03:50:20.438Z,1.00
2022-08-17T03:53:09.040Z,1.00
2022-08-17T03:55:55.970Z,1.00
2022-08-17T03:58:22.822Z,1.00
2022-08-17T04:00:50.928Z,1.00
2022-08-17T04:03:17.870Z,1.00
2022-08-17T04:05:44.961Z,26.90
2022-08-17T04:08:11.975Z,1.00
2022-08-17T04:10:41.932Z,1.00
2022-08-17T04:13:12.119Z,1.00
2022-08-17T04:15:39.124Z,1.00
2022-08-17T04:18:07.622Z,1.00
2022-08-17T04:20:37.968Z,1.00
2022-08-17T04:23:11.244Z,1.00
2022-08-17T04:25:41.668Z,1.00
2022-08-17T04:28:16.182Z,1.00
2022-08-17T04:30:45.160Z,1.00
2022-08-17T04:33:16.684Z,1.00
2022-08-17T04:35:51.165Z,1.00
2022-08-17T04:38:39.281Z,1.00
2022-08-17T04:41:25.398Z,1.00
2022-08-17T04:43:56.037Z,1.00
2022-08-17T04:46:25.797Z,1.00
2022-08-17T04:48:56.077Z,1.00
2022-08-17T04:51:28.118Z,1.00
2022-08-17T04:54:01.615Z,1.00
2022-08-17T04:56:30.494Z,1.00
2022-08-17T04:59:01.623Z,1.00
2022-08-17T05:01:31.823Z,1.00
2022-08-17T05:04:33.110Z,1.00
2022-08-17T05:06:49.844Z,1.00
2022-08-17T05:09:17.522Z,27.10
2022-08-17T05:11:45.402Z,27.00
2022-08-17T05:14:12.443Z,99.90
2022-08-17T05:16:39.284Z,99.90
2022-08-17T05:19:06.202Z,99.90
2022-08-17T05:21:35.295Z,99.90
2022-08-17T05:24:03.747Z,99.90
2022-08-17T05:26:36.549Z,99.90
2022-08-17T05:29:04.624Z,99.90
2022-08-17T05:31:31.625Z,99.90
2022-08-17T05:33:58.965Z,99.90
2022-08-17T05:36:41.934Z,99.90
2022-08-17T05:39:15.882Z,99.90
2022-08-17T05:41:45.570Z,99.90
2022-08-17T05:44:12.410Z,99.90
2022-08-17T05:46:43.509Z,99.90
2022-08-17T05:49:11.228Z,99.90
2022-08-17T05:51:38.100Z,99.90
2022-08-17T05:54:14.300Z,99.90
2022-08-17T05:56:55.119Z,99.90
2022-08-17T05:59:44.552Z,99.90
2022-08-17T06:02:26.408Z,99.90
2022-08-17T06:05:08.242Z,99.90
2022-08-17T06:08:01.297Z,99.90
2022-08-17T06:10:40.182Z,99.90
2022-08-17T06:13:43.527Z,99.90
2022-08-17T06:16:28.221Z,99.90
2022-08-17T06:19:09.985Z,99.90
2022-08-17T06:21:42.308Z,99.90
2022-08-17T06:24:34.209Z,99.90
2022-08-17T06:27:33.220Z,29.60
2022-08-17T06:30:28.359Z,24.70
2022-08-17T06:33:07.546Z,29.90
2022-08-17T06:35:55.883Z,1.00
2022-08-17T06:38:49.953Z,1.00
2022-08-17T06:41:19.625Z,1.00
2022-08-17T06:44:00.763Z,1.00
2022-08-17T06:46:56.249Z,1.00
2022-08-17T06:49:55.579Z,1.00
2022-08-17T06:52:45.858Z,1.00
2022-08-17T06:55:27.123Z,1.00
2022-08-17T06:57:59.784Z,1.00
2022-08-17T07:00:40.739Z,1.00
2022-08-17T07:03:28.868Z,1.00
2022-08-17T07:06:03.191Z,1.00
2022-08-17T07:08:38.119Z,1.00
2022-08-17T07:11:48.007Z,1.00
2022-08-17T07:14:36.497Z,1.00
2022-08-17T07:17:15.452Z,1.00
2022-08-17T07:19:45.476Z,1.00
2022-08-17T07:22:50.419Z,1.00
2022-08-17T07:25:27.510Z,1.00
2022-08-17T07:27:57.402Z,1.00
2022-08-17T07:30:50.084Z,1.00
2022-08-17T07:33:22.738Z,1.00
2022-08-17T07:35:50.194Z,1.00
2022-08-17T07:38:25.859Z,1.00
2022-08-17T07:41:02.488Z,1.00
2022-08-17T07:43:36.688Z,1.00
2022-08-17T07:46:41.688Z,1.00
2022-08-17T07:49:12.605Z,1.00
2022-08-17T07:51:48.206Z,1.00
2022-08-17T07:54:37.117Z,1.00
2022-08-17T07:57:29.477Z,1.00
2022-08-17T07:59:59.899Z,1.00
2022-08-17T08:02:38.585Z,1.00
2022-08-17T08:05:48.639Z,1.00
2022-08-17T08:08:25.587Z,1.00
2022-08-17T08:11:11.035Z,1.00
2022-08-17T08:13:42.603Z,1.00
2022-08-17T08:16:22.656Z,1.00
2022-08-17T08:18:56.850Z,1.00
2022-08-17T08:21:52.116Z,1.00
2022-08-17T08:24:23.336Z,1.00
2022-08-17T08:27:07.976Z,1.00
2022-08-17T08:29:56.656Z,1.00
2022-08-17T08:32:57.830Z,1.00
2022-08-17T08:35:40.411Z,1.00
2022-08-17T08:38:17.588Z,1.00
2022-08-17T08:41:03.228Z,1.00
2022-08-17T08:43:42.391Z,1.00
2022-08-17T08:46:36.432Z,1.00
2022-08-17T08:49:39.272Z,1.00
2022-08-17T08:52:35.032Z,1.00
2022-08-17T08:55:27.468Z,1.00
2022-08-17T08:58:00.115Z,1.00
2022-08-17T09:00:29.782Z,1.00
2022-08-17T09:03:17.351Z,1.00
2022-08-17T09:06:32.479Z,1.00
2022-08-17T09:09:08.480Z,1.00
2022-08-17T09:12:01.133Z,1.00
2022-08-17T09:14:47.524Z,1.00
2022-08-17T09:17:20.666Z,1.00
2022-08-17T09:20:01.551Z,1.00
2022-08-17T09:22:33.629Z,1.00
2022-08-17T09:25:15.669Z,1.00
2022-08-17T09:27:43.701Z,1.00
2022-08-17T09:30:11.908Z,1.00
2022-08-17T09:32:44.724Z,1.00
2022-08-17T09:35:20.330Z,1.00
2022-08-17T09:38:00.627Z,1.00
2022-08-17T09:40:39.470Z,1.00
2022-08-17T09:43:27.428Z,1.00
2022-08-17T09:46:02.803Z,1.00
2022-08-17T09:48:38.764Z,1.00
2022-08-17T09:51:40.215Z,1.00
2022-08-17T09:54:38.959Z,1.00
2022-08-17T09:57:32.809Z,1.00
2022-08-17T10:00:12.066Z,1.00
2022-08-17T10:02:51.232Z,1.00
2022-08-17T10:05:46.772Z,1.00
2022-08-17T10:08:25.750Z,1.00
2022-08-17T10:11:44.866Z,1.00
2022-08-17T10:14:44.315Z,1.00
2022-08-17T10:17:21.389Z,1.00
2022-08-17T10:20:01.674Z,1.00
2022-08-17T10:22:56.831Z,1.00
2022-08-17T10:25:54.684Z,1.00
2022-08-17T10:28:30.038Z,1.00
2022-08-17T10:31:33.015Z,1.00
2022-08-17T10:34:04.551Z,1.00
2022-08-17T10:36:48.016Z,1.00
2022-08-17T10:39:27.184Z,1.00
2022-08-17T10:42:00.550Z,1.00
2022-08-17T10:44:56.452Z,1.00
2022-08-17T10:47:26.938Z,1.00
2022-08-17T10:49:54.206Z,1.00
2022-08-17T10:52:25.886Z,1.00
2022-08-17T10:54:58.078Z,1.00
2022-08-17T10:57:34.578Z,1.00
2022-08-17T11:00:08.527Z,1.00
2022-08-17T11:02:49.625Z,1.00
2022-08-17T11:05:50.272Z,1.00
2022-08-17T11:08:22.858Z,1.00
2022-08-17T11:11:17.793Z,1.00
2022-08-17T11:13:55.715Z,1.00
2022-08-17T11:16:38.351Z,1.00
2022-08-17T11:19:32.380Z,1.00
2022-08-17T11:22:31.317Z,1.00
2022-08-17T11:25:21.274Z,1.00
2022-08-17T11:27:53.544Z,1.00
2022-08-17T11:30:46.897Z,1.00
2022-08-17T11:33:41.433Z,1.00
2022-08-17T11:36:32.502Z,1.00
2022-08-17T11:39:23.818Z,1.00
2022-08-17T11:41:58.441Z,1.00
2022-08-17T11:44:52.510Z,1.00
2022-08-17T11:48:16.111Z,1.00
2022-08-17T11:51:12.315Z,1.00
2022-08-17T11:53:39.239Z,1.00
2022-08-17T11:56:26.702Z,1.00
2022-08-17T11:58:53.549Z,1.00
2022-08-17T12:01:23.394Z,1.00
2022-08-17T12:03:58.865Z,1.00
2022-08-17T12:06:52.141Z,1.00
2022-08-17T12:09:25.184Z,1.00
2022-08-17T12:12:13.738Z,1.00
2022-08-17T12:17:41.550Z,1.00
2022-08-17T12:20:40.842Z,1.00
2022-08-17T12:23:40.995Z,1.00
2022-08-17T12:26:22.679Z,1.00
2022-08-17T12:28:55.925Z,1.00
2022-08-17T12:31:35.525Z,1.00
2022-08-17T12:34:04.886Z,1.00
2022-08-17T12:36:33.591Z,1.00
2022-08-17T12:39:14.512Z,1.00
2022-08-17T12:41:48.305Z,1.00
2022-08-17T12:44:19.430Z,1.00
2022-08-17T12:46:49.235Z,1.00
2022-08-17T12:49:23.242Z,1.00
2022-08-17T12:51:52.739Z,1.00
2022-08-17T12:54:29.233Z,1.00
2022-08-17T12:56:56.980Z,1.00
2022-08-17T12:59:29.783Z,1.00
2022-08-17T13:01:57.727Z,1.00
2022-08-17T13:04:26.507Z,1.00
2022-08-17T13:06:59.903Z,1.00
2022-08-17T13:09:35.281Z,1.00
2022-08-17T13:12:07.015Z,1.00
2022-08-17T13:14:35.139Z,1.00
2022-08-17T13:17:08.530Z,1.00
2022-08-17T13:19:49.019Z,1.00
2022-08-17T13:22:18.324Z,1.00
2022-08-17T13:24:54.673Z,1.00
2022-08-17T13:27:23.891Z,1.00
2022-08-17T13:29:57.550Z,1.00
2022-08-17T13:32:31.059Z,1.00
2022-08-17T13:35:15.572Z,1.00
2022-08-17T13:38:02.561Z,1.00
2022-08-17T13:40:36.242Z,1.00
2022-08-17T13:43:03.596Z,1.00
2022-08-17T13:45:36.572Z,1.00
2022-08-17T13:48:10.898Z,1.00
2022-08-17T13:50:45.320Z,1.00
2022-08-17T13:53:35.556Z,1.00
2022-08-17T13:56:37.055Z,1.00
2022-08-17T13:59:14.496Z,1.00
2022-08-17T14:01:52.846Z,1.00
2022-08-17T14:04:28.281Z,1.00
2022-08-17T14:07:16.071Z,1.00
2022-08-17T14:10:09.784Z,1.00
2022-08-17T14:12:39.636Z,1.00
2022-08-17T14:15:07.403Z,1.00
2022-08-17T14:17:38.689Z,1.00
2022-08-17T14:20:09.578Z,1.00
2022-08-17T14:22:39.353Z,1.00
2022-08-17T14:25:08.692Z,1.00
2022-08-17T14:27:52.290Z,1.00
2022-08-17T14:30:26.776Z,1.00
2022-08-17T14:32:56.428Z,1.00
2022-08-17T14:35:24.397Z,1.00
2022-08-17T14:37:52.564Z,1.00
2022-08-17T14:40:24.564Z,1.00
2022-08-17T14:42:53.095Z,1.00
2022-08-17T14:45:29.862Z,1.00
2022-08-17T14:48:07.902Z,1.00
2022-08-17T14:50:41.099Z,1.00
2022-08-17T14:53:10.528Z,1.00
2022-08-17T14:55:40.559Z,1.00
2022-08-17T14:58:08.989Z,1.00
2022-08-17T15:00:36.619Z,1.00
2022-08-17T15:03:04.345Z,1.00
2022-08-17T15:05:34.705Z,1.00
2022-08-17T15:08:02.979Z,1.00
2022-08-17T15:10:30.770Z,1.00
2022-08-17T15:12:58.143Z,1.00
2022-08-17T15:15:25.343Z,1.00
2022-08-17T15:17:52.284Z,1.00
2022-08-17T15:20:23.068Z,1.00
2022-08-17T15:22:50.089Z,1.00
2022-08-17T15:25:19.010Z,1.00
2022-08-17T15:27:46.230Z,1.00
2022-08-17T15:30:13.426Z,1.00
2022-08-17T15:32:46.824Z,1.00
2022-08-17T15:35:28.935Z,1.00
2022-08-17T15:38:04.923Z,1.00
2022-08-17T15:40:41.239Z,1.00
2022-08-17T15:43:11.309Z,1.00
2022-08-17T15:45:38.588Z,1.00
2022-08-17T15:48:05.537Z,1.00
2022-08-17T15:50:32.384Z,1.00
2022-08-17T15:53:01.164Z,1.00
2022-08-17T15:55:30.422Z,1.00
2022-08-17T15:57:57.310Z,1.00
2022-08-17T16:00:24.238Z,1.00
2022-08-17T16:03:45.668Z,1.00
2022-08-17T16:05:38.052Z,1.00
2022-08-17T16:08:07.759Z,1.00
2022-08-17T16:10:35.861Z,1.00
2022-08-17T16:13:04.178Z,1.00
2022-08-17T16:15:31.833Z,1.00
2022-08-17T16:17:59.022Z,1.00
2022-08-17T16:20:26.130Z,1.00
2022-08-17T16:22:54.099Z,1.00
2022-08-17T16:25:50.357Z,1.00
2022-08-17T16:28:17.072Z,1.00
2022-08-17T16:30:44.350Z,1.00
2022-08-17T16:33:12.215Z,1.00
2022-08-17T16:35:39.505Z,1.00
2022-08-17T16:38:07.233Z,1.00
2022-08-17T16:40:35.698Z,1.00
2022-08-17T16:43:04.390Z,1.00
2022-08-17T16:45:36.433Z,1.00
2022-08-17T16:48:04.055Z,1.00
2022-08-17T16:50:31.875Z,1.00
2022-08-17T16:53:11.073Z,1.00
2022-08-17T16:55:38.773Z,1.00
2022-08-17T16:58:06.392Z,1.00
2022-08-17T17:00:33.947Z,1.00
2022-08-17T17:03:19.792Z,1.00
2022-08-17T17:06:32.640Z,1.00
2022-08-17T17:09:02.666Z,1.00
2022-08-17T17:11:41.188Z,1.00
2022-08-17T17:14:16.891Z,1.00
2022-08-17T17:16:45.778Z,1.00
2022-08-17T17:19:35.150Z,1.00
2022-08-17T17:22:15.453Z,1.00
2022-08-17T17:25:06.832Z,1.00
2022-08-17T17:27:39.689Z,1.00
2022-08-17T17:30:16.281Z,1.00
2022-08-17T17:32:58.743Z,1.00
2022-08-17T17:35:25.627Z,1.00
2022-08-17T17:37:54.222Z,1.00
2022-08-17T17:40:40.310Z,1.00
2022-08-17T17:43:35.232Z,1.00
2022-08-17T17:46:26.826Z,1.00
2022-08-17T17:48:50.876Z,1.00
2022-08-17T17:52:06.662Z,1.00
2022-08-17T17:54:43.191Z,1.00
2022-08-17T17:57:42.087Z,1.00
2022-08-17T18:00:23.589Z,1.00
2022-08-17T18:03:24.494Z,1.00
2022-08-17T18:06:09.748Z,1.00
2022-08-17T18:09:02.040Z,1.00
2022-08-17T18:11:51.795Z,1.00
2022-08-17T18:14:43.218Z,1.00
2022-08-17T18:17:10.670Z,1.00
2022-08-17T18:19:39.865Z,1.00
2022-08-17T18:22:15.408Z,1.00
2022-08-17T18:24:45.698Z,1.00
2022-08-17T18:27:30.958Z,1.00
2022-08-17T18:30:01.794Z,1.00
2022-08-17T18:32:31.157Z,1.00
2022-08-17T18:35:00.514Z,1.00
2022-08-17T18:37:45.438Z,1.00
2022-08-17T18:40:21.239Z,1.00
2022-08-17T18:43:00.156Z,1.00
2022-08-17T18:45:41.512Z,1.00
2022-08-17T18:49:15.829Z,1.00
2022-08-17T18:51:43.457Z,1.00
2022-08-17T18:54:24.606Z,1.00
2022-08-17T18:56:59.858Z,1.00
2022-08-17T18:59:33.548Z,1.00
2022-08-17T19:02:27.246Z,1.00
2022-08-17T19:05:33.312Z,1.00
2022-08-17T19:08:18.697Z,1.00
2022-08-17T19:10:48.735Z,1.00
2022-08-17T19:13:23.990Z,1.00
2022-08-17T19:16:26.806Z,1.00
2022-08-17T19:19:21.670Z,1.00
2022-08-17T19:21:54.183Z,1.00
2022-08-17T19:24:24.323Z,1.00
2022-08-17T19:27:00.274Z,1.00
2022-08-17T19:29:46.943Z,1.00
2022-08-17T19:32:17.059Z,1.00
2022-08-17T19:34:47.522Z,1.00
2022-08-17T19:37:17.213Z,1.00
2022-08-17T19:40:10.389Z,1.00
2022-08-17T19:42:58.882Z,1.00
2022-08-17T19:45:36.694Z,1.00
2022-08-17T19:48:35.622Z,1.00
2022-08-17T19:51:23.102Z,1.00
2022-08-17T19:54:07.528Z,1.00
2022-08-17T19:56:55.440Z,1.00
2022-08-17T19:59:54.408Z,1.00
2022-08-17T20:02:21.197Z,1.00
2022-08-17T20:04:50.644Z,1.00
2022-08-17T20:07:23.318Z,1.00
2022-08-17T20:10:08.109Z,1.00
2022-08-17T20:12:38.654Z,1.00
2022-08-17T20:15:10.784Z,1.00
2022-08-17T20:17:43.597Z,1.00
2022-08-17T20:20:21.251Z,1.00
2022-08-17T20:22:58.243Z,1.00
2022-08-17T20:25:34.628Z,1.00
2022-08-17T20:28:35.035Z,1.00
2022-08-17T20:31:08.966Z,1.00
2022-08-17T20:33:40.307Z,1.00
2022-08-17T20:36:20.268Z,1.00
2022-08-17T20:38:59.529Z,1.00
2022-08-17T20:41:29.211Z,28.90
2022-08-17T20:43:59.187Z,29.00
2022-08-17T20:46:28.791Z,33.30
2022-08-17T20:49:44.592Z,65.60
2022-08-17T20:52:15.557Z,68.90
2022-08-17T20:54:55.842Z,68.00
2022-08-17T20:57:32.041Z,87.90
2022-08-17T21:00:17.205Z,84.10
2022-08-17T21:02:49.960Z,91.00
2022-08-17T21:05:26.473Z,99.90
2022-08-17T21:08:00.829Z,99.90
2022-08-17T21:10:27.581Z,99.90
2022-08-17T21:13:12.326Z,99.90
2022-08-17T21:15:43.437Z,99.90
2022-08-17T21:18:23.326Z,99.90
2022-08-17T21:21:14.090Z,99.90
2022-08-17T21:24:14.841Z,99.90
2022-08-17T21:27:22.062Z,99.90
2022-08-17T21:30:06.646Z,99.90
2022-08-17T21:32:41.852Z,99.90
2022-08-17T21:35:22.953Z,99.90
2022-08-17T21:37:53.663Z,99.90
2022-08-17T21:40:32.400Z,99.90
2022-08-17T21:43:08.452Z,99.90
2022-08-17T21:45:40.464Z,99.90
2022-08-17T21:48:16.190Z,99.90
2022-08-17T21:50:45.830Z,99.90
2022-08-17T21:53:32.887Z,99.90
2022-08-17T21:56:00.542Z,99.90
2022-08-17T21:58:40.372Z,99.90
2022-08-17T22:01:21.746Z,99.90
2022-08-17T22:04:11.261Z,99.90
2022-08-17T22:06:42.258Z,99.90
2022-08-17T22:09:23.174Z,99.90
2022-08-17T22:11:57.729Z,99.90
2022-08-17T22:14:52.130Z,99.90
2022-08-17T22:17:35.807Z,99.90
2022-08-17T22:20:09.468Z,99.90
2022-08-17T22:23:17.915Z,99.90
2022-08-17T22:26:09.620Z,99.90
2022-08-17T22:28:39.880Z,99.90
2022-08-17T22:31:09.868Z,99.90
2022-08-17T22:33:41.205Z,99.90
2022-08-17T22:36:22.648Z,99.90
2022-08-17T22:38:51.359Z,99.90
2022-08-17T22:41:36.054Z,99.90
2022-08-17T22:44:17.563Z,99.90
2022-08-17T22:47:06.669Z,99.90
2022-08-17T22:49:53.783Z,99.90
2022-08-17T22:53:22.762Z,99.90
2022-08-17T22:56:14.273Z,99.90
2022-08-17T22:59:12.409Z,99.90
2022-08-17T23:01:40.839Z,99.90
2022-08-17T23:04:11.607Z,99.90
2022-08-17T23:06:42.262Z,99.90
2022-08-17T23:09:09.195Z,99.90
2022-08-17T23:11:50.385Z,99.90
2022-08-17T23:14:19.884Z,99.90
2022-08-17T23:16:49.016Z,99.90
2022-08-17T23:19:19.972Z,99.90
2022-08-17T23:21:48.670Z,99.90
2022-08-17T23:24:21.441Z,99.90
2022-08-17T23:26:48.385Z,99.90
2022-08-17T23:29:15.225Z,99.90
2022-08-17T23:31:42.293Z,99.90
2022-08-17T23:34:13.494Z,99.90
2022-08-17T23:36:40.535Z,99.90
2022-08-17T23:39:07.970Z,1.00
2022-08-17T23:41:38.628Z,1.00
2022-08-17T23:44:06.420Z,1.00
2022-08-17T23:46:34.488Z,1.00
2022-08-17T23:49:01.458Z,1.00
2022-08-17T23:51:34.526Z,1.00
2022-08-17T23:54:08.221Z,1.00
2022-08-17T23:56:45.346Z,1.00
2022-08-17T23:59:13.580Z,1.00
